createdAt,value
2023-05-16T00:01:16.622Z,12.50
2023-05-16T00:16:21.632Z,11.70
2023-05-16T00:31:24.608Z,12.60
2023-05-16T00:46:27.363Z,10.50
2023-05-16T01:01:30.564Z,12.60
2023-05-16T01:16:39.018Z,12.30
2023-05-16T01:31:41.952Z,11.70
2023-05-16T01:46:47.458Z,12.90
2023-05-16T02:01:53.727Z,12.70
2023-05-16T02:16:56.446Z,12.60
2023-05-16T02:31:59.110Z,13.40
2023-05-16T02:47:01.733Z,14.60
2023-05-16T03:17:07.755Z,11.60
2023-05-16T03:32:11.778Z,12.80
2023-05-16T03:47:14.523Z,10.90
2023-05-16T04:02:18.897Z,11.10
2023-05-16T04:17:22.406Z,9.00
2023-05-16T04:32:25.412Z,9.00
2023-05-16T04:47:28.129Z,9.90
2023-05-16T05:02:31.150Z,9.60
2023-05-16T05:17:34.357Z,8.00
2023-05-16T05:32:37.366Z,7.50
2023-05-16T05:47:40.117Z,7.00
2023-05-16T06:02:43.056Z,7.10
2023-05-16T06:17:46.017Z,7.90
2023-05-16T06:32:49.155Z,6.90
2023-05-16T06:47:51.958Z,7.50
2023-05-16T07:02:55.022Z,7.70
2023-05-16T07:17:58.164Z,7.40
2023-05-16T07:33:01.195Z,7.90
2023-05-16T07:48:03.996Z,7.70
2023-05-16T08:03:06.985Z,7.60
2023-05-16T08:18:15.121Z,8.10
2023-05-16T08:33:17.894Z,9.20
2023-05-16T08:48:24.083Z,7.70
2023-05-16T09:03:29.071Z,6.40
2023-05-16T09:18:32.228Z,5.90
2023-05-16T09:33:35.075Z,6.40
2023-05-16T09:48:41.939Z,6.10
2023-05-16T10:03:44.855Z,6.70
2023-05-16T10:18:47.780Z,6.00
2023-05-16T10:33:50.995Z,5.60
2023-05-16T10:48:55.975Z,6.00
2023-05-16T11:04:02.652Z,7.50
2023-05-16T11:19:07.689Z,7.80
2023-05-16T11:34:11.600Z,9.10
2023-05-16T11:49:15.213Z,11.30
2023-05-16T12:04:18.296Z,11.30
2023-05-16T12:19:21.733Z,11.40
2023-05-16T12:34:28.151Z,13.20
2023-05-16T12:49:33.334Z,13.30
2023-05-16T13:04:37.148Z,14.10
2023-05-16T13:19:39.932Z,14.30
2023-05-16T13:34:42.560Z,15.50
2023-05-16T13:49:45.862Z,16.80
2023-05-16T14:04:50.030Z,17.00
2023-05-16T14:19:53.798Z,20.90
2023-05-16T14:34:56.523Z,22.50
2023-05-16T14:50:01.422Z,23.60
2023-05-16T15:05:05.267Z,21.60
2023-05-16T15:20:11.390Z,21.00
2023-05-16T15:35:14.426Z,19.80
2023-05-16T15:50:17.206Z,18.80
2023-05-16T16:05:19.867Z,21.60
2023-05-16T16:20:22.636Z,22.20
2023-05-16T16:35:26.259Z,22.50
2023-05-16T16:50:29.244Z,22.60
2023-05-16T17:05:32.091Z,20.70
2023-05-16T17:20:35.730Z,21.50
2023-05-16T17:35:42.171Z,19.40
2023-05-16T17:50:46.145Z,20.20
2023-05-16T18:05:51.088Z,20.80
2023-05-16T18:20:55.461Z,19.50
2023-05-16T18:36:01.513Z,20.50
2023-05-16T18:51:05.152Z,20.90
2023-05-16T19:06:07.778Z,22.40
2023-05-16T19:21:13.472Z,23.30
2023-05-16T19:36:17.589Z,22.80
2023-05-16T19:51:37.215Z,24.20
2023-05-16T20:06:46.613Z,21.10
2023-05-16T20:21:50.088Z,21.40
2023-05-16T20:36:52.713Z,18.80
2023-05-16T20:51:55.595Z,17.80
2023-05-16T21:06:58.355Z,16.10
2023-05-16T21:22:03.223Z,16.90
2023-05-16T21:37:07.373Z,17.50
2023-05-16T21:52:10.083Z,18.80
2023-05-16T22:07:12.785Z,16.90
2023-05-16T22:22:15.597Z,17.00
2023-05-16T23:07:25.368Z,16.90
2023-05-16T23:22:28.042Z,15.70
2023-05-16T23:52:34.261Z,15.30
